Terminal Aerodrome Forecast
Issued by NWS

Home | Current Version | Previous Version | Text Only | Print | Product List | Glossary On
Versions: 1 2 3 4 5 6 7 8 9 10 11 12 13
977
FTUS45 KVEF 261720
TAFDAG
TAF
KDAG 261720Z 2618/2718 28018KT P6SM SKC
     FM262200 25020G30KT P6SM SKC
     FM270900 26016KT P6SM SKC
     FM271700 34009KT P6SM SKC=

USA.gov is the U.S. government's official web portal to all federal, state and local government web resources and services.